カーブル の空港の天気 - METARとTAF

カーブル国際空港 ( OAKB / KBL ) - アフガニスタン カーブル
飛行場実況気象(Metar)
観測時間06/24 14:20 AFT (06/24 09:50 UTC)
風向・風速北 5m/s
視程10km以上
天気現象
少しの雲 雲底高度 3660m
少しの雲 雲底高度 6400m
気温29℃
湿度9%
気圧1016hPa
METAROAKB 240950Z 35010KT 9999 FEW120 FEW210 29/M07 Q1016 NOSIG RMK A3001 BLU BLU
過去の天気等 Google飛行場航空写真 Wunderground天気予報

過去48時間のMETAR

飛行場予報(TAF)
発表時間: 6/24 13:35 AFT (6/24 09:05 UTC)
予報対象時間: 24日13時 AFT ~ 25日10時 AFT
風向・風速北 6m/s
視程10km以上
全天の4割程度の雲 雲底高度 3660m
24日14時 AFT ~ 24日16時 AFT に徐々に
風向・風速北北東 6m/s 瞬間風速 11m/s
24日16時 AFT ~ 24日20時 AFT に一時的に
風向・風速北北東 10m/s 瞬間風速 18m/s
25日1時 AFT ~ 25日3時 AFT に徐々に
風向・風速北北西 3m/s
視程10km以上
なし
TAF AMD OAKB 240905Z 2409/2506 01012KT 9999 SCT120
BECMG 2410/2412 02012G22KT
TEMPO 2412/2416 03020G35KT
BECMG 2421/2423 34005KT CAVOK